createdAt,value
2023-05-09T00:03:30.278Z,16.35
2023-05-09T00:09:01.910Z,16.32
2023-05-09T00:14:33.658Z,16.36
2023-05-09T00:20:09.713Z,16.43
2023-05-09T00:25:41.552Z,16.4
2023-05-09T00:31:13.185Z,16.42
2023-05-09T00:36:45.073Z,16.45
2023-05-09T00:42:16.824Z,16.51
2023-05-09T00:47:48.375Z,16.54
2023-05-09T00:53:20.163Z,16.48
2023-05-09T00:58:51.904Z,16.54
2023-05-09T01:04:23.718Z,16.57
2023-05-09T01:09:55.378Z,16.49
2023-05-09T01:15:27.056Z,16.45
2023-05-09T01:21:03.284Z,16.53
2023-05-09T01:26:35.262Z,16.56
2023-05-09T01:32:06.702Z,16.54
2023-05-09T01:37:38.353Z,16.53
2023-05-09T01:43:10.182Z,16.53
2023-05-09T01:48:42.041Z,16.54
2023-05-09T01:54:13.531Z,16.49
2023-05-09T01:59:45.257Z,16.47
2023-05-09T02:05:17.127Z,16.46
2023-05-09T02:10:48.868Z,16.41
2023-05-09T02:16:20.966Z,16.35
2023-05-09T02:21:58.529Z,16.23
2023-05-09T02:27:30.428Z,16.27
2023-05-09T02:33:02.045Z,16.28
2023-05-09T02:38:33.737Z,16.26
2023-05-09T02:44:05.633Z,16.2
2023-05-09T02:49:37.182Z,16.09
2023-05-09T02:55:09.055Z,15.74
2023-05-09T03:00:40.729Z,15.69
2023-05-09T03:06:12.491Z,15.6
2023-05-09T03:11:44.159Z,15.53
2023-05-09T03:17:15.954Z,15.69
2023-05-09T03:22:54.057Z,15.68
2023-05-09T03:28:25.617Z,15.53
2023-05-09T03:33:57.471Z,15.51
2023-05-09T03:39:29.058Z,15.54
2023-05-09T03:45:00.982Z,15.54
2023-05-09T03:50:32.681Z,15.66
2023-05-09T03:56:04.369Z,15.61
2023-05-09T04:01:36.897Z,15.63
2023-05-09T04:07:07.688Z,15.58
2023-05-09T04:12:39.571Z,15.6
2023-05-09T04:18:11.138Z,15.71
2023-05-09T04:23:49.379Z,15.72
2023-05-09T04:29:20.960Z,15.68
2023-05-09T04:34:52.701Z,15.79
2023-05-09T04:40:26.231Z,15.77
2023-05-09T04:45:56.195Z,15.87
2023-05-09T04:51:27.998Z,15.75
2023-05-09T04:57:06.648Z,15.77
2023-05-09T05:02:31.592Z,15.51
2023-05-09T05:08:03.190Z,15.51
2023-05-09T05:13:35.028Z,15.27
2023-05-09T05:19:06.632Z,15.29
2023-05-09T05:24:42.678Z,15.26
2023-05-09T05:30:14.848Z,15.32
2023-05-09T05:35:46.267Z,15.37
2023-05-09T05:41:18.029Z,15.49
2023-05-09T05:46:49.634Z,15.65
2023-05-09T05:52:21.351Z,15.62
2023-05-09T05:57:53.288Z,15.74
2023-05-09T06:03:25.025Z,15.82
2023-05-09T06:08:56.748Z,16.03
2023-05-09T06:14:28.205Z,15.85
2023-05-09T06:19:59.973Z,15.99
2023-05-09T06:25:36.285Z,16.2
2023-05-09T06:31:08.158Z,16.35
2023-05-09T06:36:39.733Z,16.51
2023-05-09T06:42:11.309Z,16.47
2023-05-09T06:47:43.237Z,16.49
2023-05-09T06:53:14.946Z,16.57
2023-05-09T06:58:46.483Z,16.34
2023-05-09T07:04:18.191Z,16.66
2023-05-09T07:09:52.857Z,16.7
2023-05-09T07:15:32.783Z,16.64
2023-05-09T07:20:53.567Z,16.47
2023-05-09T07:26:29.515Z,16.54
2023-05-09T07:32:01.290Z,17.01
2023-05-09T07:37:33.241Z,17.38
2023-05-09T07:43:04.835Z,17.37
2023-05-09T07:48:36.608Z,17.13
2023-05-09T07:54:08.197Z,17.68
2023-05-09T07:59:40.016Z,18.19
2023-05-09T08:05:11.905Z,17.98
2023-05-09T08:10:43.383Z,18.26
2023-05-09T08:16:15.148Z,18.18
2023-05-09T08:21:46.888Z,18.37
2023-05-09T08:27:23.004Z,19.12
2023-05-09T08:32:54.728Z,19.29
2023-05-09T08:38:26.672Z,19.36
2023-05-09T08:44:02.592Z,19.57
2023-05-09T08:49:29.922Z,19.4
2023-05-09T08:55:02.270Z,19.21
2023-05-09T09:00:33.580Z,19.75
2023-05-09T09:06:05.133Z,19.71
2023-05-09T09:11:36.789Z,19.97
2023-05-09T09:17:08.936Z,19.88
2023-05-09T09:22:40.396Z,19.63
2023-05-09T09:28:16.903Z,19.89
2023-05-09T09:33:48.048Z,19.89
2023-05-09T09:39:20.044Z,19.85
2023-05-09T09:44:51.609Z,19.77
2023-05-09T09:50:23.526Z,19.95
2023-05-09T09:55:55.153Z,20.6
2023-05-09T10:01:27.124Z,20.64
2023-05-09T10:06:58.857Z,20.44
2023-05-09T10:12:30.438Z,20.49
2023-05-09T10:18:02.204Z,20.63
2023-05-09T10:23:33.999Z,21.17
2023-05-09T10:29:10.070Z,20.95
2023-05-09T10:34:41.819Z,21.31
2023-05-09T10:40:13.560Z,20.81
2023-05-09T10:45:45.276Z,21.08
2023-05-09T10:51:16.970Z,21.03
2023-05-09T10:56:48.919Z,21.43
2023-05-09T11:02:20.270Z,21.67
2023-05-09T11:07:52.096Z,21.89
2023-05-09T11:13:24.036Z,21.77
2023-05-09T11:18:55.852Z,22.19
2023-05-09T11:24:27.354Z,22.34
2023-05-09T11:30:05.351Z,22.14
2023-05-09T11:35:37.272Z,22.34
2023-05-09T11:41:08.752Z,22.7
2023-05-09T11:46:40.731Z,22.61
2023-05-09T11:52:12.712Z,22.8
2023-05-09T11:57:44.142Z,22.29
2023-05-09T12:03:15.744Z,22.36
2023-05-09T12:08:47.561Z,22.72
2023-05-09T12:14:19.123Z,22.79
2023-05-09T12:19:51.152Z,22.69
2023-05-09T12:25:22.648Z,22.71
2023-05-09T12:31:00.775Z,22.62
2023-05-09T12:36:32.625Z,22.86
2023-05-09T12:42:04.367Z,22.98
2023-05-09T12:47:35.849Z,23.09
2023-05-09T12:53:07.638Z,23.13
2023-05-09T12:58:39.889Z,23.42
2023-05-09T13:04:12.610Z,23.25
2023-05-09T13:09:42.824Z,22.97
2023-05-09T13:15:14.947Z,23.11
2023-05-09T13:20:46.593Z,22.94
2023-05-09T13:26:17.965Z,22.9
2023-05-09T13:31:54.238Z,22.96
2023-05-09T13:37:25.761Z,23.05
2023-05-09T13:42:57.451Z,23.0
2023-05-09T13:48:29.251Z,23.15
2023-05-09T13:54:00.946Z,23.14
2023-05-09T13:59:32.992Z,22.82
2023-05-09T14:05:04.394Z,22.74
2023-05-09T14:10:36.409Z,23.05
2023-05-09T14:16:07.869Z,22.54
2023-05-09T14:21:39.759Z,22.55
2023-05-09T14:27:11.300Z,22.71
2023-05-09T14:32:47.660Z,22.66
2023-05-09T14:38:19.224Z,22.39
2023-05-09T14:43:51.114Z,22.46
2023-05-09T14:49:22.810Z,22.38
2023-05-09T14:54:54.313Z,22.37
2023-05-09T15:00:26.625Z,22.64
2023-05-09T15:05:57.981Z,22.73
2023-05-09T15:11:33.425Z,23.07
2023-05-09T15:17:01.941Z,23.03
2023-05-09T15:22:33.063Z,22.94
2023-05-09T15:28:04.674Z,22.97
2023-05-09T15:33:40.761Z,22.68
2023-05-09T15:39:12.465Z,22.97
2023-05-09T15:44:44.448Z,22.62
2023-05-09T15:50:16.211Z,22.7
2023-05-09T15:55:48.475Z,22.67
2023-05-09T16:01:19.570Z,23.0
2023-05-09T16:06:51.229Z,22.8
2023-05-09T16:12:22.791Z,22.82
2023-05-09T16:17:55.789Z,22.81
2023-05-09T16:23:26.425Z,22.75
2023-05-09T16:28:58.075Z,22.67
2023-05-09T16:34:34.224Z,22.62
2023-05-09T16:40:06.084Z,22.59
2023-05-09T16:45:37.674Z,22.6
2023-05-09T16:51:09.386Z,22.59
2023-05-09T16:56:40.965Z,22.54
2023-05-09T17:02:12.841Z,22.47
2023-05-09T17:07:44.654Z,22.29
2023-05-09T17:13:16.530Z,21.91
2023-05-09T17:18:48.031Z,21.84
2023-05-09T17:24:19.808Z,21.46
2023-05-09T17:29:51.564Z,21.0
2023-05-09T17:35:29.489Z,19.61
2023-05-09T17:41:01.354Z,19.99
2023-05-09T17:46:32.867Z,19.87
2023-05-09T17:52:04.668Z,20.0
2023-05-09T17:57:36.832Z,19.6
2023-05-09T18:03:08.341Z,19.32
2023-05-09T18:08:39.775Z,19.44
2023-05-09T18:14:11.715Z,19.56
2023-05-09T18:19:43.459Z,19.49
2023-05-09T18:25:14.951Z,19.53
2023-05-09T18:30:46.671Z,19.49
2023-05-09T18:36:23.015Z,19.55
2023-05-09T18:41:54.715Z,19.58
2023-05-09T18:47:26.583Z,19.63
2023-05-09T18:52:58.127Z,19.67
2023-05-09T18:58:30.752Z,19.63
2023-05-09T19:04:01.401Z,19.53
2023-05-09T19:09:33.141Z,19.52
2023-05-09T19:15:04.885Z,19.37
2023-05-09T19:20:36.833Z,19.33
2023-05-09T19:26:08.375Z,19.27
2023-05-09T19:31:40.034Z,19.12
2023-05-09T19:37:18.465Z,19.07
2023-05-09T19:42:49.877Z,18.95
2023-05-09T19:48:21.918Z,18.81
2023-05-09T19:53:53.346Z,18.81
2023-05-09T19:59:25.046Z,18.78
2023-05-09T20:04:56.810Z,18.75
2023-05-09T20:10:28.725Z,18.69
2023-05-09T20:16:00.609Z,18.72
2023-05-09T20:21:31.967Z,18.7
2023-05-09T20:27:03.717Z,18.63
2023-05-09T20:32:35.453Z,18.37
2023-05-09T20:38:13.845Z,18.02
2023-05-09T20:43:45.203Z,18.16
2023-05-09T20:49:17.098Z,17.82
2023-05-09T20:54:49.341Z,17.86
2023-05-09T21:00:21.319Z,17.59
2023-05-09T21:05:52.201Z,17.64
2023-05-09T21:11:24.067Z,17.65
2023-05-09T21:16:56.768Z,17.6
2023-05-09T21:22:27.334Z,17.66
2023-05-09T21:27:59.042Z,17.53
2023-05-09T21:33:30.763Z,17.5
2023-05-09T21:39:07.384Z,17.42
2023-05-09T21:44:38.634Z,17.21
2023-05-09T21:50:10.314Z,17.17
2023-05-09T21:55:42.259Z,17.34
2023-05-09T22:01:14.110Z,17.3
2023-05-09T22:06:45.586Z,17.21
2023-05-09T22:12:17.233Z,17.16
2023-05-09T22:17:48.968Z,16.92
2023-05-09T22:23:21.482Z,17.05
2023-05-09T22:28:52.779Z,16.97
2023-05-09T22:34:24.173Z,16.77
2023-05-09T22:40:00.237Z,16.82
2023-05-09T22:45:31.975Z,16.88
2023-05-09T22:51:03.727Z,16.65
2023-05-09T22:56:35.797Z,16.53
2023-05-09T23:02:07.445Z,16.63
2023-05-09T23:07:38.890Z,16.59
2023-05-09T23:13:10.749Z,16.58
2023-05-09T23:18:42.486Z,16.78
2023-05-09T23:24:14.283Z,16.44
2023-05-09T23:29:45.781Z,16.27
2023-05-09T23:35:17.784Z,16.31
2023-05-09T23:40:53.817Z,16.05
2023-05-09T23:46:25.606Z,15.77
2023-05-09T23:51:56.986Z,15.27
2023-05-09T23:57:28.879Z,15.02
